createdAt,value
2017-04-12T00:00:23.966Z,66.10
2017-04-12T00:01:21.840Z,66.20
2017-04-12T00:02:19.853Z,66.20
2017-04-12T00:03:17.691Z,66.10
2017-04-12T00:04:15.570Z,65.90
2017-04-12T00:05:13.470Z,65.80
2017-04-12T00:06:11.316Z,65.80
2017-04-12T00:07:09.546Z,65.90
2017-04-12T00:08:07.376Z,66.00
2017-04-12T00:09:05.245Z,66.20
2017-04-12T00:10:03.114Z,66.40
2017-04-12T00:11:00.960Z,66.50
2017-04-12T00:11:58.791Z,66.50
2017-04-12T00:12:56.658Z,66.40
2017-04-12T00:13:54.498Z,66.50
2017-04-12T00:14:51.990Z,66.50
2017-04-12T00:15:49.882Z,66.50
2017-04-12T00:16:47.789Z,66.60
2017-04-12T00:17:45.635Z,66.50
2017-04-12T00:18:43.478Z,66.60
2017-04-12T00:19:41.323Z,66.70
2017-04-12T00:20:39.162Z,66.70
2017-04-12T00:21:37.040Z,66.80
2017-04-12T00:22:34.911Z,67.30
2017-04-12T00:23:32.843Z,67.50
2017-04-12T00:24:30.706Z,67.60
2017-04-12T00:25:28.558Z,67.70
2017-04-12T00:26:26.398Z,67.60
2017-04-12T00:27:24.290Z,67.50
2017-04-12T00:28:22.152Z,67.40
2017-04-12T00:29:20.026Z,67.40
2017-04-12T00:30:18.111Z,67.40
2017-04-12T00:31:16.009Z,67.50
2017-04-12T00:32:13.842Z,67.70
2017-04-12T00:33:11.754Z,67.80
2017-04-12T00:34:09.582Z,67.60
2017-04-12T00:35:07.419Z,67.40
2017-04-12T00:36:05.259Z,67.30
2017-04-12T00:37:03.103Z,67.10
2017-04-12T00:38:00.961Z,67.20
2017-04-12T00:38:58.874Z,67.20
2017-04-12T00:39:56.737Z,67.30
2017-04-12T00:40:54.188Z,67.30
2017-04-12T00:41:52.046Z,67.30
2017-04-12T00:42:49.868Z,67.20
2017-04-12T00:43:47.703Z,67.20
2017-04-12T00:44:46.008Z,67.20
2017-04-12T00:45:43.947Z,67.20
2017-04-12T00:46:41.787Z,67.10
2017-04-12T00:47:39.647Z,67.10
2017-04-12T00:48:37.487Z,67.00
2017-04-12T00:49:35.313Z,67.00
2017-04-12T00:50:33.184Z,67.10
2017-04-12T00:51:31.323Z,67.20
2017-04-12T00:52:29.210Z,67.20
2017-04-12T00:53:27.098Z,67.10
2017-04-12T00:54:24.949Z,67.10
2017-04-12T00:55:22.793Z,67.00
2017-04-12T00:56:20.683Z,66.90
2017-04-12T00:57:18.517Z,66.90
2017-04-12T00:58:16.330Z,66.90
2017-04-12T00:59:14.153Z,67.00
2017-04-12T01:00:12.007Z,67.00
2017-04-12T01:01:09.839Z,67.10
2017-04-12T01:02:07.754Z,67.30
2017-04-12T01:03:05.599Z,67.40
2017-04-12T01:04:03.127Z,67.40
2017-04-12T01:05:00.982Z,67.40
2017-04-12T01:05:58.820Z,67.50
2017-04-12T01:06:56.648Z,67.60
2017-04-12T01:07:54.546Z,67.80
2017-04-12T01:08:52.819Z,68.10
2017-04-12T01:09:50.689Z,68.10
2017-04-12T01:10:48.550Z,68.00
2017-04-12T01:11:46.526Z,68.00
2017-04-12T01:12:44.581Z,68.00
2017-04-12T01:13:42.507Z,68.00
2017-04-12T01:14:40.364Z,68.10
2017-04-12T01:15:38.209Z,68.00
2017-04-12T01:16:36.066Z,68.10
2017-04-12T01:17:33.973Z,68.10
2017-04-12T01:18:31.802Z,68.10
2017-04-12T01:19:29.703Z,68.10
2017-04-12T01:20:27.548Z,68.00
2017-04-12T01:21:25.411Z,68.00
2017-04-12T01:22:23.275Z,67.90
2017-04-12T01:23:21.137Z,67.90
2017-04-12T01:24:18.963Z,68.00
2017-04-12T01:25:16.854Z,68.40
2017-04-12T01:26:14.350Z,68.40
2017-04-12T01:27:12.211Z,68.90
2017-04-12T01:28:10.061Z,69.20
2017-04-12T01:29:07.906Z,69.30
2017-04-12T01:30:06.162Z,69.20
2017-04-12T01:31:04.455Z,69.00
2017-04-12T01:32:01.903Z,69.00
2017-04-12T01:32:59.731Z,69.00
2017-04-12T01:33:57.569Z,69.00
2017-04-12T01:34:55.506Z,69.00
2017-04-12T01:35:53.390Z,68.80
2017-04-12T01:36:51.294Z,68.80
2017-04-12T01:37:49.147Z,68.80
2017-04-12T01:38:46.998Z,68.70
2017-04-12T01:39:44.931Z,68.80
2017-04-12T01:40:42.786Z,68.90
2017-04-12T01:41:40.662Z,69.00
2017-04-12T01:42:38.583Z,68.80
2017-04-12T01:43:36.797Z,68.60
2017-04-12T01:44:34.638Z,68.60
2017-04-12T01:45:32.497Z,68.70
2017-04-12T01:46:30.333Z,68.80
2017-04-12T01:47:28.237Z,68.70
2017-04-12T01:48:26.148Z,68.80
2017-04-12T01:49:23.994Z,68.70
2017-04-12T01:50:21.862Z,68.80
2017-04-12T01:51:19.718Z,68.80
2017-04-12T01:52:17.940Z,69.00
2017-04-12T01:53:15.804Z,69.10
2017-04-12T01:54:13.811Z,69.00
2017-04-12T01:55:11.675Z,69.00
2017-04-12T01:56:09.522Z,68.90
2017-04-12T01:57:07.370Z,68.90
2017-04-12T01:58:05.226Z,68.90
2017-04-12T01:59:03.090Z,69.00
2017-04-12T02:00:01.026Z,69.10
2017-04-12T02:00:58.901Z,68.90
2017-04-12T02:01:57.113Z,68.80
2017-04-12T02:02:54.975Z,68.70
2017-04-12T02:03:52.802Z,68.70
2017-04-12T02:04:50.702Z,68.80
2017-04-12T02:05:48.606Z,68.80
2017-04-12T02:06:46.558Z,69.00
2017-04-12T02:07:44.411Z,69.00
2017-04-12T02:08:42.346Z,69.00
2017-04-12T02:09:40.190Z,68.80
2017-04-12T02:10:38.051Z,68.70
2017-04-12T02:11:35.966Z,68.70
2017-04-12T02:12:33.838Z,68.70
2017-04-12T02:13:31.399Z,68.70
2017-04-12T02:14:29.244Z,69.20
2017-04-12T02:15:27.114Z,69.20
2017-04-12T02:16:24.990Z,69.10
2017-04-12T02:17:22.943Z,69.10
2017-04-12T02:18:20.846Z,69.10
2017-04-12T02:19:18.685Z,69.10
2017-04-12T02:20:16.138Z,69.10
2017-04-12T02:21:13.985Z,69.00
2017-04-12T02:22:11.839Z,69.00
2017-04-12T02:23:09.796Z,69.10
2017-04-12T02:24:07.643Z,69.10
2017-04-12T02:25:05.523Z,69.40
2017-04-12T02:26:03.436Z,69.50
2017-04-12T02:27:00.895Z,69.50
2017-04-12T02:27:58.740Z,69.50
2017-04-12T02:28:56.649Z,69.60
2017-04-12T02:29:54.490Z,69.50
2017-04-12T02:30:52.355Z,69.40
2017-04-12T02:31:50.222Z,69.40
2017-04-12T02:32:48.097Z,69.30
2017-04-12T02:33:45.550Z,69.30
2017-04-12T02:34:43.459Z,69.50
2017-04-12T02:35:41.322Z,69.40
2017-04-12T02:36:39.179Z,69.50
2017-04-12T02:37:37.077Z,69.60
2017-04-12T02:38:34.928Z,69.70
2017-04-12T02:39:32.796Z,69.50
2017-04-12T02:40:30.702Z,69.20
2017-04-12T02:41:28.536Z,69.00
2017-04-12T02:42:26.412Z,68.90
2017-04-12T02:43:24.242Z,68.90
2017-04-12T02:44:22.093Z,68.90
2017-04-12T02:45:20.209Z,69.10
2017-04-12T02:46:18.099Z,69.40
2017-04-12T02:47:15.933Z,69.40
2017-04-12T02:48:13.848Z,69.50
2017-04-12T02:49:11.694Z,69.80
2017-04-12T02:50:09.564Z,69.90
2017-04-12T02:51:07.421Z,70.10
2017-04-12T02:52:05.310Z,70.00
2017-04-12T02:53:03.186Z,70.20
2017-04-12T02:54:01.038Z,70.30
2017-04-12T02:54:58.895Z,70.10
2017-04-12T02:55:56.731Z,70.20
2017-04-12T02:56:54.574Z,70.30
2017-04-12T02:57:52.475Z,70.20
2017-04-12T02:58:50.398Z,70.10
2017-04-12T02:59:48.267Z,70.00
2017-04-12T03:00:45.778Z,70.00
2017-04-12T03:01:43.606Z,70.00
2017-04-12T03:02:41.431Z,70.10
2017-04-12T03:03:39.738Z,70.10
2017-04-12T03:04:37.570Z,70.00
2017-04-12T03:05:35.398Z,69.80
2017-04-12T03:06:33.446Z,69.90
2017-04-12T03:07:31.298Z,70.00
2017-04-12T03:08:29.566Z,70.00
2017-04-12T03:09:27.507Z,70.00
2017-04-12T03:10:25.361Z,70.00
2017-04-12T03:11:23.196Z,70.00
2017-04-12T03:12:21.043Z,70.20
2017-04-12T03:13:18.914Z,70.10
2017-04-12T03:14:16.756Z,70.20
2017-04-12T03:15:14.662Z,70.20
2017-04-12T03:16:12.657Z,70.10
2017-04-12T03:17:10.506Z,69.80
2017-04-12T03:18:08.356Z,69.80
2017-04-12T03:19:06.198Z,69.80
2017-04-12T03:20:04.062Z,69.50
2017-04-12T03:21:01.979Z,69.50
2017-04-12T03:21:59.830Z,69.50
2017-04-12T03:22:57.715Z,69.60
2017-04-12T03:23:55.551Z,69.70
2017-04-12T03:24:53.382Z,69.30
2017-04-12T03:25:51.215Z,69.20
2017-04-12T03:26:49.106Z,69.10
2017-04-12T03:27:46.939Z,68.90
2017-04-12T03:28:44.367Z,68.90
2017-04-12T03:29:42.202Z,68.80
2017-04-12T03:30:40.070Z,68.70
2017-04-12T03:31:38.332Z,68.80
2017-04-12T03:32:36.205Z,69.00
2017-04-12T03:33:34.038Z,69.20
2017-04-12T03:34:31.894Z,69.30
2017-04-12T03:35:29.730Z,69.20
2017-04-12T03:36:27.586Z,69.20
2017-04-12T03:37:25.426Z,69.20
2017-04-12T03:38:23.330Z,69.00
2017-04-12T03:39:20.793Z,69.10
2017-04-12T03:40:18.630Z,69.20
2017-04-12T03:41:16.484Z,69.20
2017-04-12T03:42:14.354Z,69.20
2017-04-12T03:43:12.182Z,69.10
2017-04-12T03:44:10.186Z,69.20
2017-04-12T03:45:08.018Z,69.20
2017-04-12T03:46:06.222Z,69.20
2017-04-12T03:47:04.066Z,69.20
2017-04-12T03:48:01.916Z,69.20
2017-04-12T03:48:59.759Z,69.10
2017-04-12T03:49:58.139Z,68.80
2017-04-12T03:50:55.575Z,68.80
2017-04-12T03:51:53.419Z,68.80
2017-04-12T03:52:51.258Z,68.80
2017-04-12T03:53:49.215Z,68.80
2017-04-12T03:54:47.059Z,68.90
2017-04-12T03:55:44.972Z,69.10
2017-04-12T03:56:42.806Z,69.20
2017-04-12T03:57:40.669Z,69.30
2017-04-12T03:58:38.521Z,69.30
2017-04-12T03:59:36.399Z,69.40
2017-04-12T04:00:34.266Z,69.40
2017-04-12T04:01:32.195Z,69.60
2017-04-12T04:02:30.582Z,69.80
2017-04-12T04:03:28.487Z,69.80
2017-04-12T04:04:26.375Z,69.80
2017-04-12T04:05:24.293Z,69.80
2017-04-12T04:06:22.510Z,69.90
2017-04-12T04:07:20.435Z,69.90
2017-04-12T04:08:18.292Z,70.10
2017-04-12T04:09:16.561Z,70.10
2017-04-12T04:10:14.398Z,70.30
2017-04-12T04:11:12.262Z,70.30
2017-04-12T04:12:10.098Z,70.30
2017-04-12T04:13:08.014Z,70.40
2017-04-12T04:14:05.883Z,70.40
2017-04-12T04:15:03.794Z,70.50
2017-04-12T04:16:01.675Z,70.40
2017-04-12T04:16:59.546Z,70.60
2017-04-12T04:17:57.697Z,70.50
2017-04-12T04:18:55.570Z,70.50
2017-04-12T04:19:53.417Z,70.40
2017-04-12T04:20:51.270Z,70.40
2017-04-12T04:21:49.110Z,70.50
2017-04-12T04:22:46.959Z,70.60
2017-04-12T04:23:44.783Z,70.90
2017-04-12T04:24:42.669Z,70.90
2017-04-12T04:25:40.507Z,71.10
2017-04-12T04:26:38.366Z,71.10
2017-04-12T04:27:36.195Z,71.20
2017-04-12T04:28:34.035Z,71.20
2017-04-12T04:29:31.878Z,71.20
2017-04-12T04:30:29.747Z,71.30
2017-04-12T04:31:27.585Z,71.40
2017-04-12T04:32:25.426Z,71.40
2017-04-12T04:33:23.287Z,71.30
2017-04-12T04:34:21.508Z,71.10
2017-04-12T04:35:19.350Z,71.00
2017-04-12T04:36:17.251Z,71.10
2017-04-12T04:37:15.082Z,71.00
2017-04-12T04:38:12.908Z,71.20
2017-04-12T04:39:10.741Z,71.30
2017-04-12T04:40:08.594Z,71.40
2017-04-12T04:41:06.490Z,71.40
2017-04-12T04:42:04.435Z,71.50
2017-04-12T04:43:01.869Z,71.50
2017-04-12T04:43:59.697Z,71.70
2017-04-12T04:44:57.527Z,71.60
2017-04-12T04:45:55.378Z,71.60
2017-04-12T04:46:53.227Z,71.40
2017-04-12T04:47:51.195Z,71.30
2017-04-12T04:48:49.027Z,71.10
2017-04-12T04:49:47.549Z,71.10
2017-04-12T04:50:45.387Z,71.20
2017-04-12T04:51:43.231Z,71.70
2017-04-12T04:52:41.058Z,71.60
2017-04-12T04:53:38.973Z,71.70
2017-04-12T04:54:36.859Z,71.40
2017-04-12T04:55:34.706Z,71.30
2017-04-12T04:56:32.534Z,71.50
2017-04-12T04:57:29.977Z,71.50
2017-04-12T04:58:27.810Z,71.50
2017-04-12T04:59:25.712Z,71.50
2017-04-12T05:00:23.569Z,71.30
2017-04-12T05:01:21.406Z,71.20
2017-04-12T05:02:19.243Z,71.30
2017-04-12T05:03:17.097Z,71.40
2017-04-12T05:04:14.955Z,71.20
2017-04-12T05:05:12.855Z,71.20
2017-04-12T05:06:10.302Z,71.20
2017-04-12T05:07:08.155Z,70.90
2017-04-12T05:08:05.990Z,71.10
2017-04-12T05:09:04.106Z,71.20
2017-04-12T05:10:01.956Z,71.10
2017-04-12T05:10:59.831Z,70.90
2017-04-12T05:11:57.687Z,70.80
2017-04-12T05:12:55.523Z,70.80
2017-04-12T05:13:53.380Z,70.90
2017-04-12T05:14:51.589Z,71.20
2017-04-12T05:15:49.443Z,71.10
2017-04-12T05:16:47.351Z,70.80
2017-04-12T05:17:45.216Z,70.50
2017-04-12T05:18:43.115Z,70.50
2017-04-12T05:19:40.959Z,70.60
2017-04-12T05:20:38.787Z,70.30
2017-04-12T05:21:36.648Z,70.10
2017-04-12T05:22:34.572Z,69.80
2017-04-12T05:23:32.439Z,69.70
2017-04-12T05:24:30.327Z,69.60
2017-04-12T05:25:28.174Z,69.60
2017-04-12T05:26:26.396Z,69.60
2017-04-12T05:27:24.239Z,69.40
2017-04-12T05:28:22.094Z,69.30
2017-04-12T05:29:19.960Z,69.20
2017-04-12T05:30:18.065Z,69.10
2017-04-12T05:31:16.296Z,69.20
2017-04-12T05:32:14.180Z,68.60
2017-04-12T05:33:12.086Z,68.70
2017-04-12T05:34:09.946Z,68.90
2017-04-12T05:35:07.871Z,69.00
2017-04-12T05:36:05.800Z,69.10
2017-04-12T05:37:03.730Z,69.20
2017-04-12T05:38:02.057Z,69.20
2017-04-12T05:38:59.914Z,69.30
2017-04-12T05:39:57.825Z,69.40
2017-04-12T05:40:55.673Z,69.40
2017-04-12T05:41:53.736Z,69.60
2017-04-12T05:42:51.607Z,69.80
2017-04-12T05:43:49.448Z,70.10
2017-04-12T05:44:47.298Z,70.20
2017-04-12T05:45:45.155Z,70.00
2017-04-12T05:46:43.009Z,69.80
2017-04-12T05:47:41.159Z,69.70
2017-04-12T05:48:39.015Z,69.70
2017-04-12T05:49:36.493Z,69.70
2017-04-12T05:50:34.345Z,69.70
2017-04-12T05:51:32.219Z,70.00
2017-04-12T05:52:30.080Z,70.00
2017-04-12T05:53:27.993Z,69.90
2017-04-12T05:54:25.835Z,69.80
2017-04-12T05:55:23.757Z,69.80
2017-04-12T05:56:21.611Z,69.80
2017-04-12T05:57:19.475Z,69.70
2017-04-12T05:58:17.335Z,69.70
2017-04-12T05:59:15.255Z,69.70
2017-04-12T06:00:13.150Z,69.70
2017-04-12T06:01:11.023Z,69.60
2017-04-12T06:02:08.889Z,69.50
2017-04-12T06:03:06.749Z,69.20
2017-04-12T06:04:04.611Z,69.00
2017-04-12T06:05:02.504Z,68.60
2017-04-12T06:06:00.664Z,68.50
2017-04-12T06:06:58.519Z,68.50
2017-04-12T06:07:56.375Z,68.50
2017-04-12T06:08:54.346Z,68.70
2017-04-12T06:09:52.314Z,68.70
2017-04-12T06:10:50.213Z,68.80
2017-04-12T06:11:48.059Z,68.90
2017-04-12T06:12:45.579Z,68.90
2017-04-12T06:13:43.436Z,69.00
2017-04-12T06:14:41.323Z,69.00
2017-04-12T06:15:39.218Z,69.00
2017-04-12T06:16:37.149Z,68.50
2017-04-12T06:17:35.000Z,68.30
2017-04-12T06:18:32.846Z,68.30
2017-04-12T06:19:30.341Z,68.30
2017-04-12T06:20:28.195Z,68.40
2017-04-12T06:21:26.054Z,68.30
2017-04-12T06:22:23.935Z,68.10
2017-04-12T06:23:21.807Z,68.00
2017-04-12T06:24:19.680Z,67.90
2017-04-12T06:25:17.544Z,67.50
2017-04-12T06:26:15.071Z,67.50
2017-04-12T06:27:12.926Z,67.40
2017-04-12T06:28:10.831Z,67.50
2017-04-12T06:29:09.075Z,67.50
2017-04-12T06:30:06.934Z,67.40
2017-04-12T06:31:04.799Z,67.30
2017-04-12T06:32:02.671Z,67.30
2017-04-12T06:33:00.618Z,67.10
2017-04-12T06:33:58.609Z,66.80
2017-04-12T06:34:56.554Z,66.80
2017-04-12T06:35:54.473Z,66.70
2017-04-12T06:36:52.352Z,66.60
2017-04-12T06:37:50.221Z,66.40
2017-04-12T06:38:48.095Z,66.40
2017-04-12T06:39:46.011Z,66.40
2017-04-12T06:40:43.870Z,66.30
2017-04-12T06:41:41.331Z,66.30
2017-04-12T06:42:39.199Z,66.30
2017-04-12T06:43:37.053Z,66.10
2017-04-12T06:44:34.909Z,66.00
2017-04-12T06:45:33.193Z,65.90
2017-04-12T06:46:31.065Z,65.90
2017-04-12T06:47:28.974Z,66.10
2017-04-12T06:48:27.259Z,66.00
2017-04-12T06:49:25.123Z,66.10
2017-04-12T06:50:22.990Z,66.00
2017-04-12T06:51:20.882Z,66.10
2017-04-12T06:52:18.773Z,65.90
2017-04-12T06:53:16.621Z,65.80
2017-04-12T06:54:14.491Z,65.60
2017-04-12T06:55:12.366Z,65.60
2017-04-12T06:56:10.265Z,65.60
2017-04-12T06:57:09.095Z,65.50
2017-04-12T06:58:06.965Z,65.40
2017-04-12T06:59:04.854Z,65.40
2017-04-12T07:00:02.845Z,65.40
2017-04-12T07:01:00.723Z,65.40
2017-04-12T07:01:58.595Z,65.30
2017-04-12T07:02:57.303Z,65.10
2017-04-12T07:03:55.194Z,65.10
2017-04-12T07:04:53.047Z,65.30
2017-04-12T07:05:50.906Z,65.20
2017-04-12T07:06:48.791Z,65.20
2017-04-12T07:07:46.694Z,64.90
2017-04-12T07:08:44.607Z,64.60
2017-04-12T07:09:42.176Z,64.60
2017-04-12T07:10:40.022Z,64.40
2017-04-12T07:11:37.874Z,64.40
2017-04-12T07:12:35.735Z,64.50
2017-04-12T07:13:33.611Z,64.50
2017-04-12T07:14:31.526Z,64.50
2017-04-12T07:15:29.439Z,64.30
2017-04-12T07:16:27.769Z,64.10
2017-04-12T07:17:25.718Z,64.10
2017-04-12T07:18:23.617Z,64.10
2017-04-12T07:19:21.567Z,64.20
2017-04-12T07:20:19.460Z,64.20
2017-04-12T07:21:17.364Z,64.20
2017-04-12T07:22:15.258Z,64.00
2017-04-12T07:23:13.161Z,63.90
2017-04-12T07:24:11.115Z,64.00
2017-04-12T07:25:09.144Z,63.70
2017-04-12T07:26:07.051Z,63.80
2017-04-12T07:27:04.983Z,63.70
2017-04-12T07:28:02.857Z,63.60
2017-04-12T07:29:00.746Z,63.40
2017-04-12T07:29:58.698Z,63.40
2017-04-12T07:30:56.574Z,63.40
2017-04-12T07:31:54.767Z,63.30
2017-04-12T07:32:52.635Z,63.50
2017-04-12T07:33:50.606Z,63.50
2017-04-12T07:34:48.507Z,63.40
2017-04-12T07:35:46.395Z,63.50
2017-04-12T07:36:44.306Z,63.40
2017-04-12T07:37:42.276Z,63.10
2017-04-12T07:38:40.163Z,63.00
2017-04-12T07:39:38.129Z,63.00
2017-04-12T07:40:36.060Z,62.80
2017-04-12T07:41:34.074Z,62.90
2017-04-12T07:42:31.926Z,63.00
2017-04-12T07:43:29.826Z,63.10
2017-04-12T07:44:27.771Z,63.30
2017-04-12T07:45:25.681Z,63.60
2017-04-12T07:46:23.581Z,63.50
2017-04-12T07:47:21.478Z,63.40
2017-04-12T07:48:19.322Z,63.50
2017-04-12T07:49:17.296Z,63.00
2017-04-12T07:50:15.202Z,62.50
2017-04-12T07:51:13.115Z,62.80
2017-04-12T07:52:10.999Z,63.20
2017-04-12T07:53:08.881Z,63.70
2017-04-12T07:54:06.734Z,63.90
2017-04-12T07:55:04.681Z,64.00
2017-04-12T07:56:02.550Z,64.10
2017-04-12T07:57:00.402Z,64.20
2017-04-12T07:57:58.267Z,64.00
2017-04-12T07:58:56.150Z,63.70
2017-04-12T07:59:54.002Z,63.40
2017-04-12T08:00:58.058Z,62.90
2017-04-12T08:01:55.914Z,63.00
2017-04-12T08:02:53.801Z,63.30
2017-04-12T08:03:51.858Z,63.60
2017-04-12T08:04:49.826Z,63.30
2017-04-12T08:05:48.070Z,62.60
2017-04-12T08:06:45.954Z,62.60
2017-04-12T08:07:43.783Z,62.70
2017-04-12T08:08:41.629Z,62.40
2017-04-12T08:09:39.478Z,62.10
2017-04-12T08:10:36.940Z,62.10
2017-04-12T08:11:34.831Z,61.70
2017-04-12T08:12:32.735Z,61.50
2017-04-12T08:13:30.642Z,61.00
2017-04-12T08:14:28.502Z,61.00
2017-04-12T08:15:26.382Z,61.10
2017-04-12T08:16:24.246Z,61.10
2017-04-12T08:17:22.181Z,60.90
2017-04-12T08:18:20.095Z,60.90
2017-04-12T08:19:18.141Z,61.50
2017-04-12T08:20:16.006Z,61.40
2017-04-12T08:21:13.901Z,61.10
2017-04-12T08:22:11.740Z,60.90
2017-04-12T08:23:09.629Z,61.10
2017-04-12T08:24:07.535Z,60.80
2017-04-12T08:25:05.425Z,60.40
2017-04-12T08:26:03.294Z,60.40
2017-04-12T08:27:01.134Z,60.60
2017-04-12T08:27:58.991Z,60.60
2017-04-12T08:28:56.849Z,60.70
2017-04-12T08:29:54.742Z,60.70
2017-04-12T08:30:52.597Z,60.70
2017-04-12T08:31:50.464Z,60.50
2017-04-12T08:32:48.010Z,60.50
2017-04-12T08:33:45.854Z,60.50
2017-04-12T08:34:43.713Z,60.60
2017-04-12T08:35:41.622Z,60.70
2017-04-12T08:36:39.478Z,60.70
2017-04-12T08:37:37.346Z,60.60
2017-04-12T08:38:35.214Z,60.30
2017-04-12T08:39:33.555Z,60.60
2017-04-12T08:40:31.402Z,60.40
2017-04-12T08:41:29.322Z,60.50
2017-04-12T08:42:27.245Z,60.20
2017-04-12T08:43:25.130Z,60.00
2017-04-12T08:44:22.983Z,60.10
2017-04-12T08:45:20.927Z,60.10
2017-04-12T08:46:18.802Z,60.10
2017-04-12T08:47:16.713Z,60.10
2017-04-12T08:48:14.594Z,60.00
2017-04-12T08:49:12.485Z,60.00
2017-04-12T08:50:10.347Z,59.90
2017-04-12T08:51:08.206Z,60.00
2017-04-12T08:52:06.451Z,60.00
2017-04-12T08:53:04.412Z,60.10
2017-04-12T08:54:02.263Z,60.20
2017-04-12T08:55:00.167Z,60.10
2017-04-12T08:55:58.019Z,60.10
2017-04-12T08:56:55.870Z,59.90
2017-04-12T08:57:53.722Z,59.80
2017-04-12T08:58:51.614Z,60.20
2017-04-12T08:59:49.545Z,60.40
2017-04-12T09:00:47.488Z,60.50
2017-04-12T09:01:44.983Z,60.50
2017-04-12T09:02:42.870Z,60.80
2017-04-12T09:03:40.744Z,60.80
2017-04-12T09:04:38.649Z,60.70
2017-04-12T09:05:36.544Z,60.40
2017-04-12T09:06:34.410Z,60.30
2017-04-12T09:07:32.268Z,60.30
2017-04-12T09:08:30.159Z,60.00
2017-04-12T09:09:28.061Z,59.80
2017-04-12T09:10:26.003Z,60.00
2017-04-12T09:11:23.863Z,60.40
2017-04-12T09:12:21.731Z,60.50
2017-04-12T09:13:19.575Z,60.20
2017-04-12T09:14:17.435Z,59.70
2017-04-12T09:15:15.334Z,59.50
2017-04-12T09:16:13.245Z,60.00
2017-04-12T09:17:11.119Z,60.20
2017-04-12T09:18:08.979Z,60.10
2017-04-12T09:19:06.921Z,60.20
2017-04-12T09:20:04.783Z,59.50
2017-04-12T09:21:02.670Z,59.70
2017-04-12T09:22:00.591Z,60.10
2017-04-12T09:22:58.466Z,60.10
2017-04-12T09:23:56.751Z,59.90
2017-04-12T09:24:54.650Z,59.70
2017-04-12T09:25:52.530Z,59.70
2017-04-12T09:26:50.383Z,59.30
2017-04-12T09:27:48.291Z,59.10
2017-04-12T09:28:46.155Z,59.30
2017-04-12T09:29:44.051Z,59.30
2017-04-12T09:30:41.900Z,59.00
2017-04-12T09:31:39.750Z,58.70
2017-04-12T09:32:37.595Z,58.30
2017-04-12T09:33:35.071Z,58.30
2017-04-12T09:34:33.322Z,58.50
2017-04-12T09:35:31.154Z,58.60
2017-04-12T09:36:29.001Z,58.90
2017-04-12T09:37:26.839Z,59.10
2017-04-12T09:38:24.687Z,58.80
2017-04-12T09:39:22.679Z,59.20
2017-04-12T09:40:20.589Z,59.20
2017-04-12T09:41:18.520Z,58.90
2017-04-12T09:42:16.361Z,58.90
2017-04-12T09:43:14.571Z,58.80
2017-04-12T09:44:12.719Z,58.90
2017-04-12T09:45:10.617Z,58.60
2017-04-12T09:46:08.446Z,58.70
2017-04-12T09:47:06.939Z,58.50
2017-04-12T09:48:04.775Z,58.10
2017-04-12T09:49:02.654Z,58.40
2017-04-12T09:50:00.524Z,58.80
2017-04-12T09:50:58.434Z,58.80
2017-04-12T09:51:56.271Z,58.90
2017-04-12T09:52:54.146Z,59.40
2017-04-12T09:53:52.030Z,59.60
2017-04-12T09:54:49.878Z,59.50
2017-04-12T09:55:47.751Z,59.50
2017-04-12T09:56:45.629Z,59.30
2017-04-12T09:57:43.458Z,59.10
2017-04-12T09:58:41.294Z,58.70
2017-04-12T09:59:39.155Z,58.30
2017-04-12T10:00:37.098Z,58.40
2017-04-12T10:01:34.970Z,58.30
2017-04-12T10:02:32.860Z,57.90
2017-04-12T10:03:30.687Z,57.80
2017-04-12T10:04:28.511Z,58.00
2017-04-12T10:05:26.333Z,57.90
2017-04-12T10:06:24.197Z,57.80
2017-04-12T10:07:22.043Z,57.60
2017-04-12T10:08:19.959Z,57.50
2017-04-12T10:09:17.825Z,57.40
2017-04-12T10:10:15.690Z,57.40
2017-04-12T10:11:13.607Z,57.20
2017-04-12T10:12:11.502Z,57.30
2017-04-12T10:13:09.347Z,57.30
2017-04-12T10:14:07.262Z,57.50
2017-04-12T10:15:05.155Z,57.50
2017-04-12T10:16:03.011Z,57.80
2017-04-12T10:17:00.952Z,57.70
2017-04-12T10:17:58.790Z,57.20
2017-04-12T10:18:56.619Z,56.80
2017-04-12T10:19:54.498Z,56.80
2017-04-12T10:20:52.353Z,57.00
2017-04-12T10:21:50.235Z,57.10
2017-04-12T10:22:48.506Z,57.10
2017-04-12T10:23:46.693Z,57.20
2017-04-12T10:24:44.521Z,57.30
2017-04-12T10:25:42.405Z,57.50
2017-04-12T10:26:40.261Z,57.50
2017-04-12T10:27:38.142Z,57.40
2017-04-12T10:28:36.130Z,57.20
2017-04-12T10:29:34.006Z,56.90
2017-04-12T10:30:31.841Z,57.00
2017-04-12T10:31:29.754Z,57.20
2017-04-12T10:32:27.586Z,57.20
2017-04-12T10:33:25.443Z,57.00
2017-04-12T10:34:23.686Z,56.60
2017-04-12T10:35:21.567Z,56.80
2017-04-12T10:36:19.033Z,56.80
2017-04-12T10:37:16.912Z,57.30
2017-04-12T10:38:14.751Z,57.10
2017-04-12T10:39:12.630Z,56.90
2017-04-12T10:40:10.465Z,56.60
2017-04-12T10:41:08.299Z,56.60
2017-04-12T10:42:06.536Z,56.50
2017-04-12T10:43:04.410Z,56.40
2017-04-12T10:44:02.274Z,56.50
2017-04-12T10:45:00.139Z,55.60
2017-04-12T10:45:57.982Z,55.00
2017-04-12T10:46:55.423Z,55.00
2017-04-12T10:47:53.334Z,55.30
2017-04-12T10:48:51.314Z,55.30
2017-04-12T10:49:49.162Z,55.30
2017-04-12T10:50:47.151Z,55.20
2017-04-12T10:51:44.983Z,54.90
2017-04-12T10:52:42.821Z,55.10
2017-04-12T10:53:40.654Z,55.20
2017-04-12T10:54:38.594Z,55.20
2017-04-12T10:55:36.426Z,54.70
2017-04-12T10:56:34.274Z,54.70
2017-04-12T10:57:32.237Z,54.50
2017-04-12T10:58:30.174Z,54.30
2017-04-12T10:59:28.020Z,54.40
2017-04-12T11:00:25.907Z,54.70
2017-04-12T11:01:23.342Z,54.70
2017-04-12T11:02:21.172Z,54.60
2017-04-12T11:03:19.003Z,54.50
2017-04-12T11:04:16.838Z,54.60
2017-04-12T11:05:14.685Z,54.70
2017-04-12T11:06:12.599Z,54.70
2017-04-12T11:07:10.422Z,54.30
2017-04-12T11:08:08.260Z,54.40
2017-04-12T11:09:06.198Z,54.30
2017-04-12T11:10:04.071Z,54.40
2017-04-12T11:11:01.935Z,54.80
2017-04-12T11:11:59.810Z,54.80
2017-04-12T11:12:57.658Z,54.40
2017-04-12T11:13:55.526Z,54.40
2017-04-12T11:14:53.358Z,54.20
2017-04-12T11:15:51.223Z,54.20
2017-04-12T11:16:49.473Z,54.00
2017-04-12T11:17:47.350Z,54.10
2017-04-12T11:18:45.199Z,53.90
2017-04-12T11:19:43.063Z,53.90
2017-04-12T11:20:40.930Z,53.70
2017-04-12T11:21:38.770Z,54.10
2017-04-12T11:22:36.614Z,54.00
2017-04-12T11:23:34.512Z,54.20
2017-04-12T11:24:32.399Z,53.80
2017-04-12T11:25:30.287Z,53.70
2017-04-12T11:26:28.126Z,53.50
2017-04-12T11:27:25.954Z,53.30
2017-04-12T11:28:23.670Z,53.30
2017-04-12T11:29:21.571Z,53.10
2017-04-12T11:30:20.146Z,53.00
2017-04-12T11:31:17.981Z,53.10
2017-04-12T11:32:15.845Z,53.10
2017-04-12T11:33:13.707Z,53.10
2017-04-12T11:34:11.552Z,53.30
2017-04-12T11:35:09.420Z,53.30
2017-04-12T11:36:07.306Z,53.50
2017-04-12T11:37:05.547Z,53.40
2017-04-12T11:38:03.398Z,53.70
2017-04-12T11:39:01.266Z,53.70
2017-04-12T11:39:59.104Z,53.40
2017-04-12T11:40:57.046Z,53.20
2017-04-12T11:41:54.887Z,52.60
2017-04-12T11:42:52.722Z,52.40
2017-04-12T11:43:50.547Z,52.30
2017-04-12T11:44:48.399Z,52.60
2017-04-12T11:45:46.262Z,52.60
2017-04-12T11:46:44.168Z,52.40
2017-04-12T11:47:42.002Z,52.20
2017-04-12T11:48:39.854Z,52.50
2017-04-12T11:49:37.683Z,52.50
2017-04-12T11:50:35.508Z,52.50
2017-04-12T11:51:33.355Z,52.40
2017-04-12T11:52:31.253Z,51.90
2017-04-12T11:53:29.180Z,52.40
2017-04-12T11:54:27.027Z,52.30
2017-04-12T11:55:24.874Z,52.20
2017-04-12T11:56:22.774Z,52.10
2017-04-12T11:57:20.633Z,51.90
2017-04-12T11:58:18.553Z,51.80
2017-04-12T11:59:16.432Z,51.70
2017-04-12T12:00:14.275Z,51.60
2017-04-12T12:01:12.561Z,51.40
2017-04-12T12:02:10.450Z,51.40
2017-04-12T12:03:08.306Z,51.80
2017-04-12T12:04:06.202Z,51.80
2017-04-12T12:05:04.126Z,51.60
2017-04-12T12:06:01.958Z,51.60
2017-04-12T12:06:59.803Z,51.50
2017-04-12T12:07:57.650Z,51.60
2017-04-12T12:08:55.500Z,51.10
2017-04-12T12:09:53.370Z,50.50
2017-04-12T12:10:51.212Z,50.60
2017-04-12T12:11:49.062Z,50.30
2017-04-12T12:12:46.520Z,50.30
2017-04-12T12:13:44.367Z,50.80
2017-04-12T12:14:42.243Z,50.60
2017-04-12T12:15:40.110Z,50.70
2017-04-12T12:16:37.945Z,50.80
2017-04-12T12:17:35.810Z,50.40
2017-04-12T12:18:33.741Z,50.50
2017-04-12T12:19:31.579Z,50.90
2017-04-12T12:20:29.410Z,51.30
2017-04-12T12:21:27.315Z,50.40
2017-04-12T12:22:25.156Z,50.50
2017-04-12T12:23:22.998Z,50.80
2017-04-12T12:24:20.828Z,51.30
2017-04-12T12:25:18.738Z,51.60